Time;durP1;ratioP1;P1;durP2;ratioP2;P2;SDS_P1;SDS_P2;PMS_P1;PMS_P2;Temp;Humidity;BMP_temperature;BMP_pressure;BME280_temperature;BME280_humidity;BME280_pressure;Samples;Min_cycle;Max_cycle;Signal;HPM_P1;HPM_P2
2021/04/06 00:00:47;;;;;;;4.03;1.00;;;3.10;80.00;;;;;;2072746;28;20492;-83
2021/04/06 00:01:50;;;;;;;10.70;1.60;;;3.10;80.00;;;;;;2072885;28;20499;-83
2021/04/06 00:02:58;;;;;;;5.80;1.30;;;3.10;79.90;;;;;;2077798;28;20029;-83
2021/04/06 00:03:59;;;;;;;6.88;1.08;;;3.10;79.90;;;;;;2084354;28;20433;-83
2021/04/06 00:05:06;;;;;;;5.20;1.08;;;3.10;79.80;;;;;;2081263;28;20484;-83
2021/04/06 00:06:08;;;;;;;2.72;0.82;;;3.20;79.80;;;;;;2073594;28;20041;-84
2021/04/06 00:07:13;;;;;;;5.03;0.98;;;3.20;79.80;;;;;;2076838;28;20034;-83
2021/04/06 00:08:15;;;;;;;4.90;1.00;;;3.20;79.80;;;;;;2088531;28;20108;-83
2021/04/06 00:09:18;;;;;;;6.25;0.88;;;3.20;79.80;;;;;;2081858;28;20053;-84
2021/04/06 00:10:22;;;;;;;5.93;0.90;;;3.20;79.70;;;;;;2081103;28;20017;-83
2021/04/06 00:11:23;;;;;;;6.50;1.02;;;3.10;79.70;;;;;;2080767;28;20025;-83
2021/04/06 00:12:26;;;;;;;5.25;0.95;;;3.10;80.40;;;;;;2072892;28;20030;-83
2021/04/06 00:13:31;;;;;;;4.88;0.90;;;3.10;79.80;;;;;;2072385;28;20598;-83
2021/04/06 00:14:33;;;;;;;4.25;0.75;;;3.00;80.00;;;;;;2089297;28;20017;-83
2021/04/06 00:15:35;;;;;;;4.97;0.88;;;2.90;80.10;;;;;;2088672;28;20501;-83
2021/04/06 00:16:36;;;;;;;7.40;1.20;;;2.90;80.30;;;;;;2073026;28;20044;-83
2021/04/06 00:17:44;;;;;;;5.03;0.73;;;2.80;80.40;;;;;;2073040;28;20081;-83
2021/04/06 00:18:45;;;;;;;5.32;0.80;;;2.80;80.60;;;;;;2081415;28;20029;-83
2021/04/06 00:19:47;;;;;;;5.93;1.00;;;2.70;81.30;;;;;;2072675;28;20476;-83
2021/04/06 00:20:50;;;;;;;8.85;1.40;;;2.60;81.80;;;;;;2069722;28;20173;-83
2021/04/06 00:21:54;;;;;;;5.15;0.93;;;2.60;81.70;;;;;;2073071;28;20022;-82
2021/04/06 00:22:57;;;;;;;4.78;1.10;;;2.50;81.80;;;;;;2073125;28;20033;-83
2021/04/06 00:24:00;;;;;;;5.72;1.10;;;2.40;81.90;;;;;;2073002;28;20516;-84
2021/04/06 00:25:03;;;;;;;5.75;1.20;;;2.40;82.20;;;;;;2073380;28;20026;-84
2021/04/06 00:26:04;;;;;;;5.40;1.27;;;2.40;82.10;;;;;;2075230;28;20143;-83
2021/04/06 00:27:23;;;;;;;5.75;0.93;;;2.30;82.20;;;;;;2078272;28;20499;-84
2021/04/06 00:28:32;;;;;;;4.63;0.70;;;2.30;82.30;;;;;;2075626;28;20026;-83
2021/04/06 00:29:36;;;;;;;4.18;0.68;;;2.30;82.20;;;;;;2077032;28;20037;-83
2021/04/06 00:30:38;;;;;;;5.50;1.10;;;2.30;82.30;;;;;;2081071;28;20025;-84
2021/04/06 00:31:43;;;;;;;5.82;0.82;;;2.30;82.30;;;;;;2088203;28;20037;-83
2021/04/06 00:32:44;;;;;;;4.10;0.90;;;2.30;82.40;;;;;;2080158;28;20117;-83
2021/04/06 00:33:49;;;;;;;3.05;0.60;;;2.30;82.40;;;;;;2064439;28;20058;-83
2021/04/06 00:34:57;;;;;;;5.63;0.90;;;2.30;82.40;;;;;;2074330;28;20032;-84
2021/04/06 00:36:00;;;;;;;5.40;1.15;;;2.30;82.50;;;;;;2089079;28;20040;-84
2021/04/06 00:37:06;;;;;;;5.50;0.90;;;2.30;82.50;;;;;;2072291;28;20500;-83
2021/04/06 00:38:11;;;;;;;3.97;0.63;;;2.30;83.10;;;;;;2081582;28;20029;-84
2021/04/06 00:39:12;;;;;;;6.25;1.20;;;2.30;82.60;;;;;;2080940;28;20081;-84
2021/04/06 00:40:14;;;;;;;3.47;0.68;;;2.30;82.60;;;;;;2079714;28;20129;-84
2021/04/06 00:41:15;;;;;;;5.85;0.95;;;2.30;82.70;;;;;;2080024;28;20548;-84
2021/04/06 00:42:19;;;;;;;2.95;0.60;;;2.30;82.70;;;;;;2072035;28;20412;-83
2021/04/06 00:43:20;;;;;;;4.07;0.80;;;2.30;82.80;;;;;;2070668;28;20018;-83
2021/04/06 00:44:21;;;;;;;6.20;0.88;;;2.30;82.80;;;;;;2080460;28;20056;-84
2021/04/06 00:45:23;;;;;;;7.22;0.90;;;2.40;82.90;;;;;;2081223;28;20041;-83
2021/04/06 00:46:27;;;;;;;5.20;0.80;;;2.40;82.90;;;;;;2072028;28;20052;-84
2021/04/06 00:47:30;;;;;;;4.90;0.77;;;2.40;83.00;;;;;;2072484;28;20022;-84
2021/04/06 00:48:33;;;;;;;5.05;1.05;;;2.40;83.00;;;;;;2072772;28;20041;-84
2021/04/06 00:49:34;;;;;;;4.22;0.68;;;2.40;83.00;;;;;;2064909;28;20136;-84
2021/04/06 00:50:37;;;;;;;4.20;0.82;;;2.40;83.10;;;;;;2075355;28;20038;-84
2021/04/06 00:51:39;;;;;;;5.68;0.93;;;2.50;83.10;;;;;;2080865;28;20033;-84
2021/04/06 00:52:44;;;;;;;4.45;0.90;;;2.40;83.10;;;;;;2072817;28;20022;-84
2021/04/06 00:53:54;;;;;;;4.47;0.90;;;2.50;83.20;;;;;;2065794;28;20018;-84
2021/04/06 00:54:58;;;;;;;4.32;0.80;;;2.50;83.30;;;;;;2074116;28;20037;-83
2021/04/06 00:56:11;;;;;;;6.18;0.95;;;2.50;83.30;;;;;;2064492;28;20057;-84
2021/04/06 00:57:13;;;;;;;4.18;0.80;;;2.50;83.30;;;;;;2071768;28;20508;-83
2021/04/06 00:58:14;;;;;;;5.30;1.08;;;2.50;83.30;;;;;;2086908;28;20459;-84
2021/04/06 00:59:22;;;;;;;4.90;0.88;;;2.50;83.30;;;;;;2080756;28;20025;-84
2021/04/06 01:00:29;;;;;;;4.22;1.00;;;2.50;83.30;;;;;;2073648;28;20446;-84
2021/04/06 01:01:44;;;;;;;6.00;1.00;;;2.50;83.30;;;;;;2081197;28;20044;-84
2021/04/06 01:02:58;;;;;;;7.30;1.25;;;2.60;83.30;;;;;;2078974;28;20022;-84
2021/04/06 01:04:01;;;;;;;6.95;1.00;;;2.60;83.30;;;;;;2079007;28;20037;-84
2021/04/06 01:05:06;;;;;;;5.95;1.20;;;2.60;83.30;;;;;;2080906;28;20033;-83
2021/04/06 01:06:08;;;;;;;5.32;1.00;;;2.60;83.60;;;;;;2076895;28;20034;-83
2021/04/06 01:07:16;;;;;;;5.82;1.50;;;2.50;83.30;;;;;;2077665;28;20028;-84
2021/04/06 01:08:17;;;;;;;6.30;1.02;;;2.50;83.30;;;;;;2072950;28;20488;-84
2021/04/06 01:09:38;;;;;;;6.00;0.85;;;2.50;83.30;;;;;;2064432;28;20030;-84
2021/04/06 01:10:39;;;;;;;6.18;1.13;;;2.50;83.30;;;;;;2079802;28;20443;-83
2021/04/06 01:11:39;;;;;;;7.22;1.15;;;2.50;83.30;;;;;;2072468;28;20030;-84
2021/04/06 01:12:40;;;;;;;6.43;1.10;;;2.50;83.40;;;;;;2065920;28;20030;-83
2021/04/06 01:13:41;;;;;;;4.93;1.52;;;2.50;83.40;;;;;;2064505;28;20030;-83
2021/04/06 01:14:43;;;;;;;6.70;1.23;;;2.50;83.50;;;;;;2065650;28;20121;-83
2021/04/06 01:15:44;;;;;;;6.05;0.90;;;2.50;83.60;;;;;;2079859;28;20490;-83
2021/04/06 01:16:45;;;;;;;4.55;1.00;;;2.50;83.70;;;;;;2076089;28;20036;-83
2021/04/06 01:17:46;;;;;;;5.68;1.30;;;2.50;83.70;;;;;;2080914;28;20022;-84
2021/04/06 01:18:48;;;;;;;6.40;1.40;;;2.50;83.70;;;;;;2072393;28;20026;-83
2021/04/06 01:19:49;;;;;;;5.22;1.10;;;2.50;83.80;;;;;;2072241;28;20032;-84
2021/04/06 01:20:56;;;;;;;6.70;0.90;;;2.50;83.90;;;;;;2079798;28;20033;-83
2021/04/06 01:21:57;;;;;;;5.20;1.08;;;2.50;84.00;;;;;;2086107;28;20029;-84
2021/04/06 01:23:00;;;;;;;7.10;1.17;;;2.50;83.90;;;;;;2081214;28;20117;-83
2021/04/06 01:24:07;;;;;;;4.43;1.08;;;2.50;84.00;;;;;;2085146;28;20031;-84
2021/04/06 01:25:19;;;;;;;5.10;1.00;;;2.50;84.20;;;;;;2088599;28;20037;-83
2021/04/06 01:26:21;;;;;;;8.00;1.10;;;2.40;84.00;;;;;;2089469;28;20542;-83
2021/04/06 01:27:22;;;;;;;5.57;1.00;;;2.40;84.00;;;;;;2083221;28;20499;-83
2021/04/06 01:28:27;;;;;;;5.90;0.90;;;2.40;84.00;;;;;;2059407;28;20037;-83
2021/04/06 01:29:28;;;;;;;6.00;1.35;;;2.40;84.10;;;;;;2061955;28;20501;-84
2021/04/06 01:30:43;;;;;;;5.45;1.30;;;2.40;84.10;;;;;;2080744;28;20104;-84
2021/04/06 01:31:45;;;;;;;5.85;1.17;;;2.40;84.10;;;;;;2080527;28;20034;-83
2021/04/06 01:32:46;;;;;;;6.15;1.15;;;2.40;84.10;;;;;;2073311;28;20026;-83
2021/04/06 01:33:47;;;;;;;3.03;0.70;;;2.50;84.70;;;;;;2069028;28;20420;-83
2021/04/06 01:34:55;;;;;;;5.10;0.90;;;2.50;84.10;;;;;;2072557;28;20045;-83
2021/04/06 01:35:58;;;;;;;5.97;1.00;;;2.50;84.10;;;;;;2072484;28;20445;-83
2021/04/06 01:36:59;;;;;;;5.53;0.98;;;2.50;84.10;;;;;;2079001;28;20029;-83
2021/04/06 01:38:00;;;;;;;4.50;1.00;;;2.40;84.10;;;;;;2072338;28;20026;-83
2021/04/06 01:39:00;;;;;;;6.70;1.25;;;2.50;84.10;;;;;;2080729;28;20471;-84
2021/04/06 01:40:04;;;;;;;6.72;1.13;;;2.50;84.20;;;;;;2072725;28;20456;-83
2021/04/06 01:41:05;;;;;;;4.72;0.90;;;2.40;84.20;;;;;;2072941;28;20022;-83
2021/04/06 01:42:08;;;;;;;6.05;1.48;;;2.40;84.20;;;;;;2082065;28;20037;-83
2021/04/06 01:43:10;;;;;;;4.93;1.30;;;2.40;84.30;;;;;;2088729;28;20121;-83
2021/04/06 01:44:11;;;;;;;5.50;1.23;;;2.40;84.30;;;;;;2088817;28;20168;-83
2021/04/06 01:45:16;;;;;;;7.38;1.30;;;2.40;84.30;;;;;;2078979;28;20665;-84
2021/04/06 01:46:19;;;;;;;8.75;1.25;;;2.40;84.40;;;;;;2079783;28;20021;-84
2021/04/06 01:47:22;;;;;;;9.18;1.70;;;2.40;84.40;;;;;;2071157;28;20049;-84
2021/04/06 01:48:22;;;;;;;8.13;1.40;;;2.40;84.40;;;;;;2064629;28;20030;-84
2021/04/06 01:49:25;;;;;;;5.03;0.95;;;2.40;84.40;;;;;;2064594;28;20497;-84
2021/04/06 01:50:26;;;;;;;5.70;1.10;;;2.40;84.40;;;;;;2064621;28;20035;-83
2021/04/06 01:51:26;;;;;;;6.00;1.05;;;2.40;84.40;;;;;;2076391;28;20050;-84
2021/04/06 01:52:27;;;;;;;9.82;1.60;;;2.40;84.40;;;;;;2059038;28;20505;-83
2021/04/06 01:53:29;;;;;;;8.57;1.50;;;2.40;84.90;;;;;;2059138;28;20118;-84
2021/04/06 01:54:30;;;;;;;5.88;1.60;;;2.40;84.30;;;;;;2056620;28;20571;-84
2021/04/06 01:55:32;;;;;;;8.73;1.55;;;2.40;84.30;;;;;;2071607;28;20038;-83
2021/04/06 01:56:37;;;;;;;9.90;1.27;;;2.40;84.30;;;;;;2080545;28;20593;-84
2021/04/06 01:57:41;;;;;;;6.82;1.10;;;2.50;84.40;;;;;;2081046;28;20025;-84
2021/04/06 01:58:52;;;;;;;8.65;1.20;;;2.50;84.90;;;;;;2077207;28;20052;-83
2021/04/06 02:00:01;;;;;;;7.05;1.42;;;2.50;84.90;;;;;;2067553;28;20424;-84
2021/04/06 02:02:04;;;;;;;5.97;1.30;;;2.50;84.20;;;;;;2080352;28;20018;-84
2021/04/06 02:03:09;;;;;;;7.32;1.13;;;2.50;84.20;;;;;;2072777;28;20550;-83
2021/04/06 02:04:10;;;;;;;6.80;1.10;;;2.50;84.20;;;;;;2070716;28;20057;-83
2021/04/06 02:05:14;;;;;;;9.07;1.63;;;2.50;84.20;;;;;;2066249;28;20077;-84
2021/04/06 02:06:15;;;;;;;6.75;1.40;;;2.50;84.20;;;;;;2081986;28;20065;-83
2021/04/06 02:07:19;;;;;;;5.25;1.20;;;2.50;84.20;;;;;;2081567;28;20475;-83
2021/04/06 02:08:22;;;;;;;6.88;1.25;;;2.50;84.20;;;;;;2073795;28;20399;-83
2021/04/06 02:09:23;;;;;;;5.10;1.10;;;2.50;84.20;;;;;;2075940;28;20064;-83
2021/04/06 02:10:24;;;;;;;4.50;1.33;;;2.50;84.20;;;;;;2059170;28;20038;-83
2021/04/06 02:11:31;;;;;;;4.75;1.02;;;2.50;84.30;;;;;;2074172;28;20029;-83
2021/04/06 02:12:41;;;;;;;4.57;1.20;;;2.50;84.30;;;;;;2085156;28;20029;-84
2021/04/06 02:13:42;;;;;;;8.52;1.30;;;2.50;84.30;;;;;;2093235;28;20025;-83
2021/04/06 02:14:43;;;;;;;7.07;1.17;;;2.50;84.90;;;;;;2084287;28;20457;-83
2021/04/06 02:15:55;;;;;;;7.25;1.33;;;2.50;84.30;;;;;;2083162;28;20142;-83
2021/04/06 02:17:01;;;;;;;7.05;1.15;;;2.50;84.30;;;;;;2091085;28;20166;-83
2021/04/06 02:18:02;;;;;;;5.78;1.20;;;2.50;84.30;;;;;;2082515;28;20035;-83
2021/04/06 02:19:03;;;;;;;4.25;1.13;;;2.50;84.30;;;;;;2083199;28;20033;-83
2021/04/06 02:20:04;;;;;;;7.50;1.20;;;2.40;84.30;;;;;;2069336;28;20057;-83
2021/04/06 02:21:06;;;;;;;5.95;1.45;;;2.40;84.30;;;;;;2070987;28;20079;-83
2021/04/06 02:22:13;;;;;;;5.95;1.30;;;2.40;84.40;;;;;;2083702;28;20095;-83
2021/04/06 02:23:14;;;;;;;4.95;1.13;;;2.40;84.40;;;;;;2092969;28;20031;-83
2021/04/06 02:24:35;;;;;;;9.18;1.45;;;2.40;84.40;;;;;;2058624;28;20122;-83
2021/04/06 02:25:35;;;;;;;6.55;1.48;;;2.40;84.40;;;;;;2074288;28;20034;-82
2021/04/06 02:26:36;;;;;;;6.68;1.08;;;2.40;84.40;;;;;;2074265;28;20448;-83
2021/04/06 02:27:36;;;;;;;4.72;0.95;;;2.40;84.40;;;;;;2066092;28;20395;-83
2021/04/06 02:28:37;;;;;;;6.78;1.30;;;2.40;84.30;;;;;;2066018;28;20473;-83
2021/04/06 02:29:45;;;;;;;4.78;1.05;;;2.40;84.40;;;;;;2074058;28;20034;-83
2021/04/06 02:30:51;;;;;;;5.53;1.67;;;2.40;85.00;;;;;;2074730;28;20068;-83
2021/04/06 02:31:51;;;;;;;7.13;1.10;;;2.40;84.40;;;;;;2075149;28;20045;-83
2021/04/06 02:32:53;;;;;;;7.20;1.08;;;2.40;84.40;;;;;;2074152;28;20404;-84
2021/04/06 02:33:53;;;;;;;6.18;1.13;;;2.40;84.50;;;;;;2085112;28;20025;-83
2021/04/06 02:34:57;;;;;;;7.32;1.40;;;2.40;84.50;;;;;;2074810;28;20599;-84
2021/04/06 02:36:00;;;;;;;7.45;1.13;;;2.40;84.50;;;;;;2078080;28;20112;-83
2021/04/06 02:37:02;;;;;;;5.95;1.00;;;2.40;84.60;;;;;;2082044;28;20379;-83
2021/04/06 02:38:04;;;;;;;6.85;1.25;;;2.40;84.60;;;;;;2080451;28;20040;-83
2021/04/06 02:39:05;;;;;;;5.20;1.20;;;2.30;84.50;;;;;;2091563;28;20032;-84
2021/04/06 02:40:08;;;;;;;6.07;1.15;;;2.30;84.50;;;;;;2077366;28;20178;-83
2021/04/06 02:41:14;;;;;;;7.70;1.45;;;2.30;84.50;;;;;;2084865;28;20073;-82
2021/04/06 02:42:22;;;;;;;7.53;1.38;;;2.30;84.30;;;;;;2090575;28;20029;-83
2021/04/06 02:43:22;;;;;;;6.80;1.27;;;2.30;84.50;;;;;;2081864;28;20030;-83
2021/04/06 02:44:23;;;;;;;8.63;1.23;;;2.30;84.50;;;;;;2070579;28;20019;-83
2021/04/06 02:45:28;;;;;;;7.72;1.25;;;2.30;84.50;;;;;;2079087;28;20424;-83
2021/04/06 02:46:29;;;;;;;9.85;1.40;;;2.30;84.40;;;;;;2082713;28;20446;-84
2021/04/06 02:47:30;;;;;;;6.82;1.08;;;2.30;84.40;;;;;;2074362;28;20053;-84
2021/04/06 02:48:32;;;;;;;5.82;1.63;;;2.30;84.40;;;;;;2073896;28;20041;-84
2021/04/06 02:49:33;;;;;;;8.90;1.20;;;2.30;84.30;;;;;;2065431;28;20042;-83
2021/04/06 02:50:35;;;;;;;9.70;1.40;;;2.30;84.30;;;;;;2066052;28;20515;-84
2021/04/06 02:51:35;;;;;;;5.88;1.15;;;2.30;84.30;;;;;;2084627;28;20120;-84
2021/04/06 02:52:37;;;;;;;9.23;1.80;;;2.30;84.30;;;;;;2073788;28;20547;-84
2021/04/06 02:53:39;;;;;;;6.68;1.30;;;2.30;84.40;;;;;;2058093;28;20023;-84
2021/04/06 02:54:39;;;;;;;8.32;1.45;;;2.30;84.30;;;;;;2073954;28;20037;-84
2021/04/06 02:55:40;;;;;;;6.70;1.10;;;2.30;84.30;;;;;;2079562;28;20033;-84
2021/04/06 02:56:41;;;;;;;4.50;0.90;;;2.30;84.20;;;;;;2073624;28;20032;-84
2021/04/06 02:57:48;;;;;;;7.18;1.00;;;2.30;84.10;;;;;;2073786;28;20044;-84
2021/04/06 02:58:49;;;;;;;7.05;1.50;;;2.40;84.20;;;;;;2063574;28;20476;-84
2021/04/06 02:59:51;;;;;;;7.18;1.05;;;2.30;84.10;;;;;;2065903;28;20029;-83
2021/04/06 03:00:52;;;;;;;5.88;1.15;;;2.30;84.00;;;;;;2071108;28;20177;-83
2021/04/06 03:01:58;;;;;;;6.25;1.23;;;2.40;84.00;;;;;;2090136;28;20033;-83
2021/04/06 03:03:01;;;;;;;6.10;1.48;;;2.40;84.00;;;;;;2082476;28;20387;-83
2021/04/06 03:04:02;;;;;;;5.20;0.85;;;2.40;83.90;;;;;;2073902;28;20126;-84
2021/04/06 03:05:03;;;;;;;6.13;1.10;;;2.40;83.90;;;;;;2073257;28;20607;-84
2021/04/06 03:06:14;;;;;;;5.22;1.00;;;2.40;83.90;;;;;;2064744;28;20042;-84
2021/04/06 03:07:25;;;;;;;9.13;1.10;;;2.40;83.80;;;;;;2076033;28;20101;-84
2021/04/06 03:08:30;;;;;;;4.20;0.90;;;2.40;83.80;;;;;;2084717;28;20075;-84
2021/04/06 03:09:31;;;;;;;5.53;0.70;;;2.40;83.70;;;;;;2071460;28;20132;-84
2021/04/06 03:10:33;;;;;;;5.15;0.98;;;2.40;83.70;;;;;;2073187;28;20018;-84
2021/04/06 03:11:44;;;;;;;6.80;1.30;;;2.40;83.70;;;;;;2071904;28;20030;-84
2021/04/06 03:12:49;;;;;;;5.45;0.90;;;2.40;83.60;;;;;;2074727;28;20535;-83
2021/04/06 03:13:50;;;;;;;3.75;0.90;;;2.40;83.60;;;;;;2081680;28;20160;-84
2021/04/06 03:14:51;;;;;;;5.10;0.88;;;2.40;84.10;;;;;;2065394;28;20037;-84
2021/04/06 03:15:52;;;;;;;5.53;1.13;;;2.50;83.50;;;;;;2057461;28;20075;-84
2021/04/06 03:16:53;;;;;;;5.88;0.90;;;2.40;83.30;;;;;;2057551;28;20037;-84
2021/04/06 03:17:56;;;;;;;4.97;1.00;;;2.50;83.30;;;;;;2065326;28;20420;-84
2021/04/06 03:19:02;;;;;;;7.30;1.20;;;2.50;83.30;;;;;;2073877;28;20029;-84
2021/04/06 03:20:03;;;;;;;5.80;0.90;;;2.50;83.30;;;;;;2068811;28;20112;-83
2021/04/06 03:21:09;;;;;;;5.13;0.98;;;2.50;83.30;;;;;;2071164;28;20033;-83
2021/04/06 03:22:11;;;;;;;3.88;0.80;;;2.50;83.30;;;;;;2078915;28;20021;-83
2021/04/06 03:23:11;;;;;;;4.18;0.75;;;2.50;83.20;;;;;;2078010;28;20068;-84
2021/04/06 03:24:12;;;;;;;3.22;0.82;;;2.50;83.30;;;;;;2073266;28;20520;-84
2021/04/06 03:25:14;;;;;;;5.88;1.10;;;2.50;83.30;;;;;;2080000;28;20029;-84
2021/04/06 03:26:15;;;;;;;5.55;1.13;;;2.50;83.30;;;;;;2081840;28;20021;-83
2021/04/06 03:27:16;;;;;;;7.10;1.17;;;2.50;83.40;;;;;;2073274;28;20491;-83
2021/04/06 03:28:17;;;;;;;4.82;0.90;;;2.50;83.30;;;;;;2065835;28;20053;-83
2021/04/06 03:29:17;;;;;;;7.13;1.10;;;2.50;83.30;;;;;;2070791;28;20057;-83
2021/04/06 03:30:32;;;;;;;6.00;1.08;;;2.40;83.50;;;;;;2072983;28;20022;-83
2021/04/06 03:31:34;;;;;;;6.18;1.00;;;2.40;83.50;;;;;;2083196;28;20034;-84
2021/04/06 03:32:34;;;;;;;6.13;1.02;;;2.30;83.40;;;;;;2073264;28;20121;-84
2021/04/06 03:33:38;;;;;;;4.25;0.82;;;2.30;83.50;;;;;;2072511;28;20061;-84
2021/04/06 03:34:41;;;;;;;4.93;1.08;;;2.20;83.60;;;;;;2080471;28;20120;-84
2021/04/06 03:35:47;;;;;;;5.13;0.80;;;2.20;83.70;;;;;;2073378;28;20021;-84
2021/04/06 03:36:48;;;;;;;4.47;0.90;;;2.10;83.80;;;;;;2061713;28;20019;-84
2021/04/06 03:37:48;;;;;;;4.05;0.93;;;2.10;83.90;;;;;;2075144;28;20508;-84
2021/04/06 03:38:53;;;;;;;7.20;0.90;;;2.10;84.00;;;;;;2084758;28;20127;-83
2021/04/06 03:39:54;;;;;;;4.20;0.70;;;2.00;84.10;;;;;;2080357;28;20028;-83
2021/04/06 03:40:55;;;;;;;4.40;0.90;;;2.00;84.10;;;;;;2077902;28;20582;-83
2021/04/06 03:41:56;;;;;;;3.58;0.50;;;2.00;84.10;;;;;;2078612;28;20032;-84
2021/04/06 03:43:38;;;;;;;3.97;0.65;;;1.90;84.10;;;;;;2081320;28;20048;-84
2021/04/06 03:44:38;;;;;;;2.50;0.50;;;1.90;84.30;;;;;;2048580;28;20141;-83
2021/04/06 03:45:59;;;;;;;2.72;0.50;;;1.90;84.30;;;;;;2084546;28;20479;-84
2021/04/06 03:47:02;;;;;;;3.38;0.60;;;1.90;84.30;;;;;;2089566;28;20534;-84
2021/04/06 03:48:03;;;;;;;4.43;1.00;;;1.90;84.40;;;;;;2083841;28;20025;-83
2021/04/06 03:49:18;;;;;;;5.25;0.73;;;1.80;84.30;;;;;;2080803;28;20076;-83
2021/04/06 03:50:41;;;;;;;2.95;0.60;;;1.90;84.50;;;;;;2075111;28;20022;-84
2021/04/06 03:51:52;;;;;;;1.67;0.47;;;1.80;84.50;;;;;;2069232;28;20038;-85
2021/04/06 03:53:00;;;;;;;3.45;0.60;;;1.80;84.50;;;;;;2069232;28;20033;-84
2021/04/06 03:54:00;;;;;;;4.28;0.68;;;1.80;84.50;;;;;;2075366;28;20084;-83
2021/04/06 03:55:09;;;;;;;4.30;0.70;;;1.80;84.50;;;;;;2067445;28;20103;-83
2021/04/06 03:56:12;;;;;;;6.85;0.77;;;1.80;84.60;;;;;;2067987;28;20027;-85
2021/04/06 03:57:45;;;;;;;3.35;0.75;;;1.80;84.60;;;;;;2065760;28;20507;-83
2021/04/06 03:58:53;;;;;;;4.43;0.73;;;1.80;84.60;;;;;;2077889;28;20052;-83
2021/04/06 03:59:54;;;;;;;2.40;0.50;;;1.80;84.60;;;;;;2082019;28;20040;-84
2021/04/06 04:00:55;;;;;;;2.60;0.60;;;1.80;84.60;;;;;;2074881;28;20033;-83
2021/04/06 04:01:57;;;;;;;3.90;0.90;;;1.80;84.60;;;;;;2073160;28;20036;-84
2021/04/06 04:02:59;;;;;;;3.47;0.60;;;1.80;84.60;;;;;;2077653;28;20034;-84
2021/04/06 04:04:00;;;;;;;2.47;0.50;;;1.80;84.60;;;;;;2072872;28;20028;-84
2021/04/06 04:05:01;;;;;;;2.03;0.50;;;1.90;84.60;;;;;;2067247;28;20044;-83
2021/04/06 04:06:02;;;;;;;4.20;0.77;;;1.90;84.60;;;;;;2077048;28;20033;-84
2021/04/06 04:07:03;;;;;;;6.72;0.70;;;1.90;84.60;;;;;;2073036;28;20037;-84
2021/04/06 04:08:03;;;;;;;3.42;0.70;;;1.90;84.60;;;;;;2072602;28;20100;-84
2021/04/06 04:09:04;;;;;;;3.25;0.65;;;1.90;84.60;;;;;;2056565;28;20030;-83
2021/04/06 04:10:08;;;;;;;3.90;0.73;;;1.90;84.60;;;;;;2064788;28;20075;-84
2021/04/06 04:11:08;;;;;;;3.38;0.70;;;1.90;84.60;;;;;;2071725;28;20030;-83
2021/04/06 04:12:09;;;;;;;3.85;0.60;;;1.90;85.20;;;;;;2064719;28;20501;-84
2021/04/06 04:13:10;;;;;;;4.07;0.75;;;1.90;84.60;;;;;;2068848;28;20034;-84
2021/04/06 04:14:10;;;;;;;3.60;0.90;;;1.90;84.60;;;;;;2064970;28;20042;-84
2021/04/06 04:15:11;;;;;;;5.25;0.95;;;1.90;84.70;;;;;;2067801;28;20496;-84
2021/04/06 04:16:12;;;;;;;3.30;0.60;;;1.90;84.70;;;;;;2077045;28;20026;-84
2021/04/06 04:17:12;;;;;;;6.10;0.80;;;1.90;84.80;;;;;;2068140;28;20057;-84
2021/04/06 04:18:13;;;;;;;3.88;0.80;;;1.90;84.80;;;;;;2060694;28;20050;-84
2021/04/06 04:19:14;;;;;;;2.70;0.50;;;1.90;84.80;;;;;;2072885;28;20026;-84
2021/04/06 04:20:18;;;;;;;4.60;0.82;;;1.90;84.80;;;;;;2065206;28;20396;-84
2021/04/06 04:21:18;;;;;;;3.90;0.70;;;1.90;84.80;;;;;;2078148;28;20108;-85
2021/04/06 04:22:19;;;;;;;4.30;0.80;;;1.90;84.80;;;;;;2074456;28;20049;-84
2021/04/06 04:23:20;;;;;;;6.60;1.08;;;1.90;84.90;;;;;;2061648;28;20101;-84
2021/04/06 04:24:21;;;;;;;4.28;0.73;;;1.90;84.90;;;;;;2064502;28;20030;-84
2021/04/06 04:25:22;;;;;;;6.28;1.25;;;1.90;84.90;;;;;;2064467;28;20084;-84
2021/04/06 04:26:22;;;;;;;5.38;0.60;;;1.90;85.00;;;;;;2076092;28;20029;-84
2021/04/06 04:27:23;;;;;;;5.97;0.90;;;1.90;85.00;;;;;;2088709;28;20033;-83
2021/04/06 04:28:24;;;;;;;5.68;0.90;;;1.90;85.00;;;;;;2074430;28;20120;-84
2021/04/06 04:29:24;;;;;;;6.68;0.70;;;1.90;85.20;;;;;;2075858;28;20041;-83
2021/04/06 04:31:48;;;;;;;6.90;0.85;;;1.90;85.10;;;;;;2085463;28;20055;-83
2021/04/06 04:32:48;;;;;;;4.00;0.60;;;1.90;85.70;;;;;;2072697;28;20503;-83
2021/04/06 04:33:49;;;;;;;3.35;0.70;;;1.80;85.00;;;;;;2066828;28;20122;-84
2021/04/06 04:34:49;;;;;;;3.92;0.85;;;1.90;85.10;;;;;;2072079;28;20030;-83
2021/04/06 04:35:50;;;;;;;5.45;0.98;;;1.80;85.00;;;;;;2071690;28;20141;-83
2021/04/06 04:36:51;;;;;;;4.70;0.60;;;1.90;85.10;;;;;;2076904;28;20429;-84
2021/04/06 04:37:51;;;;;;;3.90;0.70;;;1.90;85.10;;;;;;2081176;28;20116;-84
2021/04/06 04:38:52;;;;;;;5.45;0.98;;;1.90;85.10;;;;;;2066277;28;20040;-84
2021/04/06 04:39:52;;;;;;;6.03;0.80;;;1.80;85.10;;;;;;2066642;28;20034;-84
2021/04/06 04:40:53;;;;;;;2.95;0.60;;;1.90;85.10;;;;;;2072688;28;20033;-84
2021/04/06 04:41:54;;;;;;;5.88;0.93;;;1.90;85.10;;;;;;2073019;28;20091;-84
2021/04/06 04:42:55;;;;;;;4.57;0.80;;;1.80;85.10;;;;;;2073023;28;20053;-84
2021/04/06 04:43:56;;;;;;;6.40;1.00;;;1.80;85.10;;;;;;2071046;28;20447;-84
2021/04/06 04:44:56;;;;;;;3.63;0.80;;;1.90;85.10;;;;;;2079908;28;20136;-84
2021/04/06 04:45:57;;;;;;;3.38;0.60;;;1.90;85.10;;;;;;2072066;28;20104;-84
2021/04/06 04:46:58;;;;;;;2.85;0.80;;;1.90;85.10;;;;;;2072936;28;20546;-84
2021/04/06 04:47:58;;;;;;;4.03;0.77;;;1.90;85.10;;;;;;2080972;28;20026;-84
2021/04/06 04:48:59;;;;;;;4.80;0.60;;;1.90;85.10;;;;;;2067523;28;20041;-84
2021/04/06 04:50:00;;;;;;;4.40;0.70;;;1.90;85.10;;;;;;2063984;28;20053;-84
2021/04/06 04:51:01;;;;;;;2.80;0.63;;;1.90;85.10;;;;;;2068642;28;20034;-83
2021/04/06 04:52:02;;;;;;;6.35;0.90;;;1.90;85.00;;;;;;2064563;28;20085;-84
2021/04/06 04:53:05;;;;;;;6.32;0.70;;;1.90;85.00;;;;;;2068297;28;20033;-84
2021/04/06 04:54:06;;;;;;;4.68;1.10;;;2.00;85.10;;;;;;2072355;28;20029;-84
2021/04/06 04:55:07;;;;;;;3.83;0.70;;;2.00;85.00;;;;;;2065244;28;20552;-84
2021/04/06 04:56:08;;;;;;;3.75;0.60;;;2.00;85.00;;;;;;2064576;28;20125;-84
2021/04/06 04:57:09;;;;;;;3.33;0.68;;;2.00;85.00;;;;;;2072852;28;20068;-84
2021/04/06 04:58:10;;;;;;;3.95;0.60;;;2.00;84.90;;;;;;2072396;28;20040;-84
2021/04/06 04:59:11;;;;;;;5.22;0.80;;;2.00;84.90;;;;;;2072402;28;20046;-83
2021/04/06 05:00:13;;;;;;;4.07;1.08;;;2.00;84.90;;;;;;2077621;28;20072;-84
2021/04/06 05:01:14;;;;;;;4.00;0.88;;;2.00;84.90;;;;;;2079591;28;20070;-84
2021/04/06 05:02:14;;;;;;;4.93;0.77;;;2.10;84.90;;;;;;2075570;28;20044;-84
2021/04/06 05:03:15;;;;;;;5.32;1.33;;;2.10;84.90;;;;;;2080970;28;20029;-83
2021/04/06 05:04:16;;;;;;;5.40;0.80;;;2.10;85.50;;;;;;2063473;28;20073;-84
2021/04/06 05:05:18;;;;;;;6.28;1.02;;;2.10;84.90;;;;;;2063754;28;20061;-84
2021/04/06 05:06:18;;;;;;;2.78;0.63;;;2.10;84.90;;;;;;2072779;28;20025;-84
2021/04/06 05:07:19;;;;;;;4.75;0.98;;;2.10;84.90;;;;;;2084199;28;20032;-84
2021/04/06 05:08:19;;;;;;;3.50;0.65;;;2.10;84.90;;;;;;2056591;28;20520;-84
2021/04/06 05:09:20;;;;;;;4.28;0.65;;;2.10;85.50;;;;;;2053553;28;20087;-84
2021/04/06 05:10:20;;;;;;;4.72;1.10;;;2.10;84.90;;;;;;2063106;28;20475;-84
2021/04/06 05:11:21;;;;;;;4.32;0.88;;;2.00;84.90;;;;;;2064231;28;20093;-84
2021/04/06 05:12:22;;;;;;;4.30;0.70;;;2.00;85.00;;;;;;2057166;28;20489;-84
2021/04/06 05:13:22;;;;;;;2.85;0.63;;;2.00;85.00;;;;;;2071174;28;20506;-84
2021/04/06 05:14:23;;;;;;;3.75;0.77;;;2.00;85.10;;;;;;2066117;28;20124;-84
2021/04/06 05:15:24;;;;;;;3.28;0.80;;;2.00;85.10;;;;;;2077328;28;20029;-83
2021/04/06 05:16:24;;;;;;;4.32;0.60;;;2.00;85.20;;;;;;2072407;28;20104;-84
2021/04/06 05:17:25;;;;;;;3.53;0.85;;;2.00;85.20;;;;;;2072782;28;20066;-84
2021/04/06 05:18:26;;;;;;;3.58;1.08;;;2.00;85.20;;;;;;2073182;28;20030;-84
2021/04/06 05:19:26;;;;;;;1.73;0.73;;;1.90;85.20;;;;;;2072535;28;20054;-84
2021/04/06 05:20:27;;;;;;;4.20;0.88;;;1.90;85.30;;;;;;2080619;28;20038;-84
2021/04/06 05:21:28;;;;;;;4.55;0.93;;;1.90;85.90;;;;;;2072438;28;20046;-84
2021/04/06 05:22:28;;;;;;;3.85;0.88;;;1.90;85.30;;;;;;2072668;28;20038;-84
2021/04/06 05:23:29;;;;;;;4.47;0.93;;;1.90;85.40;;;;;;2080882;28;20018;-84
2021/04/06 05:24:29;;;;;;;5.57;1.15;;;1.90;85.40;;;;;;2063252;28;20034;-84
2021/04/06 05:25:30;;;;;;;3.00;0.70;;;1.90;85.40;;;;;;2056191;28;20030;-84
2021/04/06 05:26:31;;;;;;;3.42;0.85;;;1.90;85.40;;;;;;2060890;28;20033;-84
2021/04/06 05:27:31;;;;;;;3.67;0.73;;;1.90;85.40;;;;;;2064150;28;20023;-84
2021/04/06 05:28:32;;;;;;;4.25;0.80;;;1.90;85.40;;;;;;2056765;28;20091;-85
2021/04/06 05:29:33;;;;;;;4.38;0.80;;;1.90;85.50;;;;;;2072897;28;20049;-85
2021/04/06 05:30:34;;;;;;;4.00;0.85;;;1.90;85.50;;;;;;2069663;28;20181;-84
2021/04/06 05:31:34;;;;;;;4.32;0.80;;;1.90;85.50;;;;;;2061271;28;20035;-85
2021/04/06 05:32:35;;;;;;;2.58;0.70;;;1.90;85.60;;;;;;2057310;28;20125;-85
2021/04/06 05:33:35;;;;;;;4.60;0.77;;;1.90;85.60;;;;;;2063931;28;20027;-84
2021/04/06 05:34:36;;;;;;;2.40;0.80;;;1.90;85.60;;;;;;2060405;28;20041;-84
2021/04/06 05:35:37;;;;;;;4.85;0.80;;;1.80;85.50;;;;;;2072459;28;20030;-84